This is the latest recevied weather packets stored in our database for station/object G1SCQ. If no packets are shown the sender has not sent any weather packets the latest 1 day(s).
| Time | Temp. | Humidity | Pressure | Rain* | Wind** | Luminosity | Snow |
|---|---|---|---|---|---|---|---|
| 1777997346 | 11.67° C | 79% | 1012.9 hPa | 0 mm | 0.45 m/s, 45° | 174 W/m² | - |
| 1777996805 | 12.22° C | 78% | 1012.8 hPa | 0 mm | 0.45 m/s, 85° | 180 W/m² | - |
| 1777996445 | 12.22° C | 77% | 1013 hPa | 0 mm | 0.45 m/s, 49° | 201 W/m² | - |
| 1777995905 | 13.33° C | 76% | 1013 hPa | 0 mm | 0.45 m/s, 55° | 285 W/m² | - |
| 1777995365 | 13.89° C | 72% | 1013 hPa | 0 mm | 0.45 m/s, 88° | 310 W/m² | - |
| 1777994825 | 13.89° C | 73% | 1013 hPa | 0 mm | 0.89 m/s, 47° | 311 W/m² | - |
| 1777994285 | 14.44° C | 72% | 1012.8 hPa | 0 mm | 0.45 m/s, 38° | 508 W/m² | - |
| 1777993745 | 13.89° C | 74% | 1012.8 hPa | 0 mm | 0.45 m/s, 52° | 512 W/m² | - |
| 1777993205 | 13.89° C | 72% | 1013 hPa | 0 mm | 0.45 m/s, 55° | 475 W/m² | - |
| 1777992845 | 15° C | 71% | 1013 hPa | 0 mm | 0.45 m/s, 47° | 453 W/m² | - |
| 1777992305 | 14.44° C | 73% | 1013 hPa | 0 mm | 0.45 m/s, 77° | 516 W/m² | - |
| 1777991765 | 14.44° C | 75% | 1013.2 hPa | 0 mm | 0.45 m/s, 47° | 534 W/m² | - |
| 1777991225 | 13.89° C | 74% | 1013 hPa | 0 mm | 0.45 m/s, 40° | 545 W/m² | - |
| 1777990685 | 14.44° C | 73% | 1012.9 hPa | 0 mm | 0.45 m/s, 28° | 557 W/m² | - |
| 1777990145 | 14.44° C | 72% | 1012.9 hPa | 0 mm | 0.45 m/s, 23° | 570 W/m² | - |
| 1777989605 | 14.44° C | 71% | 1013 hPa | 0 mm | 0.89 m/s, 52° | 585 W/m² | - |
| 1777989245 | 15.56° C | 68% | 1012.9 hPa | 0 mm | 0.45 m/s, 23° | 537 W/m² | - |
| 1777988705 | 15° C | 70% | 1013 hPa | 0 mm | 0.45 m/s, 6° | 605 W/m² | - |
| 1777988165 | 15° C | 71% | 1013 hPa | 0 mm | 0.45 m/s, 59° | 643 W/m² | - |
| 1777987625 | 14.44° C | 72% | 1013 hPa | 0 mm | 0.45 m/s, 52° | 536 W/m² | - |
| 1777987085 | 13.89° C | 74% | 1013.1 hPa | 0 mm | 0.45 m/s, 34° | 481 W/m² | - |
| 1777986545 | 14.44° C | 73% | 1013.1 hPa | 0 mm | 0.45 m/s, 43° | 414 W/m² | - |
| 1777986005 | 14.44° C | 73% | 1013.1 hPa | 0 mm | 0.45 m/s, 51° | 487 W/m² | - |
| 1777985645 | 14.44° C | 74% | 1012.9 hPa | 0 mm | 0.89 m/s, 30° | 577 W/m² | - |
| 1777985105 | 15.56° C | 71% | 1012.9 hPa | 0 mm | 0.45 m/s, 60° | 707 W/m² | - |
* Rain latest hour (hover to see other rain measurements)
** Current wind speed in m/s (hover to see current wind gust speed)